createdAt,value
2018-06-03T00:01:08.619Z,18.80
2018-06-03T00:03:36.865Z,18.80
2018-06-03T00:06:05.067Z,18.70
2018-06-03T00:08:33.267Z,18.70
2018-06-03T00:11:01.459Z,18.70
2018-06-03T00:13:29.652Z,18.60
2018-06-03T00:15:57.863Z,18.60
2018-06-03T00:18:26.069Z,18.60
2018-06-03T00:21:05.520Z,18.50
2018-06-03T00:23:33.755Z,18.50
2018-06-03T00:26:01.982Z,18.40
2018-06-03T00:28:30.216Z,18.40
2018-06-03T00:30:58.404Z,18.40
2018-06-03T00:33:26.650Z,18.40
2018-06-03T00:36:06.260Z,18.30
2018-06-03T00:38:34.437Z,18.30
2018-06-03T00:41:02.613Z,18.20
2018-06-03T00:43:30.792Z,18.30
2018-06-03T00:45:58.971Z,18.20
2018-06-03T00:48:27.177Z,18.20
2018-06-03T00:50:55.360Z,18.10
2018-06-03T00:53:23.606Z,18.10
2018-06-03T00:55:51.842Z,18.10
2018-06-03T00:58:20.048Z,18.10
2018-06-03T01:00:48.301Z,18.10
2018-06-03T01:03:16.536Z,18.10
2018-06-03T01:05:44.723Z,18.00
2018-06-03T01:08:12.914Z,17.90
2018-06-03T01:12:10.575Z,17.90
2018-06-03T01:14:38.765Z,17.80
2018-06-03T01:17:06.980Z,17.90
2018-06-03T01:19:35.186Z,17.90
2018-06-03T01:22:03.690Z,17.90
2018-06-03T01:24:31.917Z,17.90
2018-06-03T01:27:00.108Z,17.90
2018-06-03T01:29:28.332Z,17.90
2018-06-03T01:31:56.584Z,17.80
2018-06-03T01:34:24.933Z,17.80
2018-06-03T01:36:53.242Z,17.80
2018-06-03T01:39:21.376Z,17.80
2018-06-03T01:41:49.632Z,17.80
2018-06-03T01:44:17.804Z,17.80
2018-06-03T01:46:46.009Z,17.70
2018-06-03T01:49:14.202Z,17.70
2018-06-03T01:51:42.435Z,17.60
2018-06-03T01:54:11.220Z,17.60
2018-06-03T01:56:39.407Z,17.60
2018-06-03T01:59:07.671Z,17.60
2018-06-03T02:01:35.913Z,17.50
2018-06-03T02:04:04.176Z,17.50
2018-06-03T02:06:32.419Z,17.50
2018-06-03T02:09:00.593Z,17.40
2018-06-03T02:11:29.082Z,17.50
2018-06-03T02:13:57.330Z,17.40
2018-06-03T02:16:25.543Z,17.40
2018-06-03T02:18:53.722Z,17.40
2018-06-03T02:21:21.973Z,17.40
2018-06-03T02:23:50.155Z,17.40
2018-06-03T02:26:18.385Z,17.30
2018-06-03T02:28:46.576Z,17.30
2018-06-03T02:31:14.904Z,17.30
2018-06-03T02:33:43.123Z,17.20
2018-06-03T02:36:11.383Z,17.20
2018-06-03T02:38:39.909Z,17.20
2018-06-03T02:41:08.165Z,17.20
2018-06-03T02:43:36.355Z,17.10
2018-06-03T02:46:04.549Z,17.10
2018-06-03T02:48:32.795Z,17.10
2018-06-03T02:51:00.965Z,17.10
2018-06-03T02:53:29.203Z,17.10
2018-06-03T02:55:57.434Z,17.10
2018-06-03T02:58:25.646Z,17.10
2018-06-03T03:00:53.841Z,17.10
2018-06-03T03:03:22.012Z,17.10
2018-06-03T03:05:50.274Z,17.00
2018-06-03T03:10:46.571Z,17.00
2018-06-03T03:13:14.753Z,17.00
2018-06-03T03:15:42.941Z,16.90
2018-06-03T03:18:11.156Z,16.90
2018-06-03T03:20:39.339Z,16.90
2018-06-03T03:23:07.556Z,16.80
2018-06-03T03:25:35.739Z,16.80
2018-06-03T03:28:03.924Z,16.70
2018-06-03T03:30:32.174Z,16.70
2018-06-03T03:33:00.414Z,16.70
2018-06-03T03:35:28.611Z,16.70
2018-06-03T03:37:56.786Z,16.70
2018-06-03T03:40:24.985Z,16.60
2018-06-03T03:45:21.280Z,16.60
2018-06-03T03:47:49.460Z,16.60
2018-06-03T03:50:17.701Z,16.60
2018-06-03T03:55:13.996Z,16.60
2018-06-03T03:57:42.257Z,16.60
2018-06-03T04:00:10.486Z,16.60
2018-06-03T04:02:38.761Z,16.60
2018-06-03T04:05:06.941Z,16.70
2018-06-03T04:07:35.203Z,16.70
2018-06-03T04:10:03.408Z,16.70
2018-06-03T04:12:31.576Z,16.70
2018-06-03T04:14:59.785Z,16.60
2018-06-03T04:17:28.009Z,16.60
2018-06-03T04:19:56.196Z,16.60
2018-06-03T04:22:24.380Z,16.70
2018-06-03T04:24:52.564Z,16.70
2018-06-03T04:27:20.752Z,16.70
2018-06-03T04:29:49.023Z,16.60
2018-06-03T04:32:17.281Z,16.70
2018-06-03T04:34:45.529Z,16.70
2018-06-03T04:39:41.745Z,16.70
2018-06-03T04:42:09.920Z,16.80
2018-06-03T04:44:38.119Z,16.90
2018-06-03T04:47:06.551Z,16.90
2018-06-03T04:49:34.730Z,17.00
2018-06-03T04:52:02.927Z,17.10
2018-06-03T04:54:31.095Z,17.10
2018-06-03T04:56:59.284Z,17.10
2018-06-03T04:59:27.462Z,17.10
2018-06-03T05:01:55.648Z,17.20
2018-06-03T05:04:23.893Z,17.20
2018-06-03T05:06:52.074Z,17.30
2018-06-03T05:09:20.285Z,17.40
2018-06-03T05:11:48.492Z,17.50
2018-06-03T05:14:16.734Z,17.60
2018-06-03T05:16:44.931Z,17.70
2018-06-03T05:19:13.117Z,17.70
2018-06-03T05:21:41.324Z,17.80
2018-06-03T05:24:09.582Z,17.90
2018-06-03T05:26:37.771Z,18.00
2018-06-03T05:29:05.956Z,18.10
2018-06-03T05:31:34.222Z,18.20
2018-06-03T05:34:02.443Z,18.20
2018-06-03T05:36:30.636Z,18.30
2018-06-03T05:38:58.848Z,18.40
2018-06-03T05:41:27.114Z,18.50
2018-06-03T05:43:55.335Z,18.60
2018-06-03T05:46:23.518Z,18.70
2018-06-03T05:48:51.719Z,18.70
2018-06-03T05:51:19.958Z,18.70
2018-06-03T05:53:48.216Z,18.80
2018-06-03T05:56:16.660Z,18.90
2018-06-03T05:58:44.909Z,19.00
2018-06-03T06:01:13.096Z,19.00
2018-06-03T06:03:41.347Z,19.10
2018-06-03T06:06:09.520Z,19.20
2018-06-03T06:08:37.716Z,19.20
2018-06-03T06:11:05.905Z,19.30
2018-06-03T06:13:34.092Z,19.40
2018-06-03T06:16:02.304Z,19.40
2018-06-03T06:18:30.782Z,19.40
2018-06-03T06:20:59.029Z,19.50
2018-06-03T06:23:27.224Z,19.60
2018-06-03T06:25:55.411Z,19.70
2018-06-03T06:28:23.642Z,19.80
2018-06-03T06:30:51.824Z,19.90
2018-06-03T06:33:20.026Z,19.90
2018-06-03T06:35:48.219Z,20.10
2018-06-03T06:38:16.427Z,20.20
2018-06-03T06:40:44.643Z,20.30
2018-06-03T06:43:12.973Z,20.40
2018-06-03T06:45:41.148Z,20.50
2018-06-03T06:48:09.377Z,20.60
2018-06-03T06:50:37.584Z,20.60
2018-06-03T06:53:05.775Z,20.70
2018-06-03T06:55:33.988Z,20.90
2018-06-03T06:58:02.169Z,21.00
2018-06-03T07:00:30.331Z,21.00
2018-06-03T07:02:58.629Z,21.10
2018-06-03T07:05:26.802Z,21.20
2018-06-03T07:07:55.046Z,21.20
2018-06-03T07:10:23.225Z,21.20
2018-06-03T07:12:51.408Z,21.40
2018-06-03T07:17:47.740Z,21.60
2018-06-03T07:20:15.940Z,21.60
2018-06-03T07:22:44.132Z,21.60
2018-06-03T07:27:40.313Z,21.80
2018-06-03T07:30:08.492Z,21.90
2018-06-03T07:32:36.669Z,22.10
2018-06-03T07:35:04.849Z,22.20
2018-06-03T07:37:33.040Z,22.30
2018-06-03T07:40:01.224Z,22.40
2018-06-03T07:42:29.425Z,22.50
2018-06-03T07:44:57.636Z,22.50
2018-06-03T07:47:25.816Z,22.50
2018-06-03T07:49:54.015Z,22.60
2018-06-03T07:52:22.197Z,22.60
2018-06-03T07:54:50.417Z,22.70
2018-06-03T07:57:18.746Z,22.70
2018-06-03T07:59:46.901Z,22.80
2018-06-03T08:02:15.102Z,22.90
2018-06-03T08:04:43.310Z,23.00
2018-06-03T08:07:11.491Z,23.10
2018-06-03T08:09:39.752Z,23.20
2018-06-03T08:12:07.936Z,23.30
2018-06-03T08:14:36.181Z,23.40
2018-06-03T08:17:04.370Z,23.60
2018-06-03T08:19:32.572Z,23.70
2018-06-03T08:22:00.784Z,23.80
2018-06-03T08:24:28.966Z,23.90
2018-06-03T08:26:57.154Z,24.00
2018-06-03T08:29:25.380Z,24.10
2018-06-03T08:31:53.602Z,24.10
2018-06-03T08:34:21.790Z,24.10
2018-06-03T08:36:49.973Z,24.20
2018-06-03T08:39:18.252Z,24.40
2018-06-03T08:41:46.405Z,24.40
2018-06-03T08:44:14.619Z,24.50
2018-06-03T08:46:42.847Z,24.40
2018-06-03T08:49:11.065Z,24.40
2018-06-03T08:51:39.327Z,24.60
2018-06-03T08:54:07.563Z,24.80
2018-06-03T08:56:35.797Z,25.00
2018-06-03T08:59:03.981Z,25.00
2018-06-03T09:01:32.223Z,25.20
2018-06-03T09:04:00.499Z,25.30
2018-06-03T09:06:28.683Z,25.40
2018-06-03T09:08:56.889Z,25.40
2018-06-03T09:11:25.141Z,25.60
2018-06-03T09:13:53.370Z,25.60
2018-06-03T09:16:21.636Z,25.60
2018-06-03T09:18:49.987Z,25.60
2018-06-03T09:21:18.200Z,25.60
2018-06-03T09:23:46.391Z,25.60
2018-06-03T09:26:14.648Z,25.80
2018-06-03T09:28:42.864Z,26.00
2018-06-03T09:31:11.017Z,26.20
2018-06-03T09:33:39.205Z,26.50
2018-06-03T09:36:07.537Z,26.80
2018-06-03T09:38:35.718Z,27.00
2018-06-03T09:41:03.966Z,27.20
2018-06-03T09:43:32.181Z,27.50
2018-06-03T09:46:00.348Z,27.60
2018-06-03T09:48:28.906Z,27.80
2018-06-03T09:50:57.110Z,27.90
2018-06-03T09:53:25.362Z,27.90
2018-06-03T09:55:53.549Z,28.00
2018-06-03T09:58:21.748Z,28.20
2018-06-03T10:00:50.044Z,28.20
2018-06-03T10:03:18.212Z,28.40
2018-06-03T10:05:46.425Z,28.60
2018-06-03T10:08:14.611Z,29.00
2018-06-03T10:10:42.880Z,29.50
2018-06-03T10:13:11.335Z,29.90
2018-06-03T10:15:39.519Z,30.30
2018-06-03T10:18:07.713Z,30.90
2018-06-03T10:20:35.916Z,31.40
2018-06-03T10:23:04.108Z,31.60
2018-06-03T10:25:32.300Z,31.90
2018-06-03T10:28:00.540Z,32.60
2018-06-03T10:30:28.751Z,33.40
2018-06-03T10:32:56.928Z,34.10
2018-06-03T10:35:25.128Z,34.80
2018-06-03T10:37:53.329Z,35.10
2018-06-03T10:40:21.524Z,35.40
2018-06-03T10:42:49.695Z,35.50
2018-06-03T10:45:17.901Z,35.70
2018-06-03T10:47:46.083Z,36.10
2018-06-03T10:50:14.287Z,36.50
2018-06-03T10:52:42.538Z,36.80
2018-06-03T10:55:10.720Z,37.10
2018-06-03T10:57:38.907Z,37.50
2018-06-03T11:02:35.129Z,37.10
2018-06-03T11:05:03.352Z,37.00
2018-06-03T11:07:31.555Z,36.70
2018-06-03T11:09:59.793Z,35.90
2018-06-03T11:12:27.977Z,34.90
2018-06-03T11:14:56.173Z,35.00
2018-06-03T11:17:24.364Z,35.20
2018-06-03T11:19:52.780Z,34.90
2018-06-03T11:22:21.036Z,33.90
2018-06-03T11:24:49.215Z,33.20
2018-06-03T11:27:17.396Z,33.60
2018-06-03T11:29:45.573Z,34.60
2018-06-03T11:32:13.760Z,35.30
2018-06-03T11:34:41.936Z,35.90
2018-06-03T11:37:10.112Z,36.30
2018-06-03T11:39:38.377Z,36.30
2018-06-03T11:44:34.616Z,36.30
2018-06-03T11:47:02.797Z,36.50
2018-06-03T11:49:30.988Z,36.90
2018-06-03T11:51:59.185Z,37.30
2018-06-03T11:54:27.434Z,37.40
2018-06-03T11:57:01.852Z,37.80
2018-06-03T11:59:46.637Z,38.30
2018-06-03T12:02:16.343Z,39.00
2018-06-03T12:04:44.533Z,39.00
2018-06-03T12:09:40.758Z,39.40
2018-06-03T12:12:09.308Z,38.70
2018-06-03T12:14:37.485Z,37.20
2018-06-03T12:17:05.728Z,35.60
2018-06-03T12:19:33.961Z,35.20
2018-06-03T12:22:02.166Z,36.00
2018-06-03T12:24:30.339Z,36.80
2018-06-03T12:26:58.547Z,37.30
2018-06-03T12:29:26.736Z,37.70
2018-06-03T12:31:54.936Z,38.30
2018-06-03T12:34:23.141Z,38.80
2018-06-03T12:36:51.329Z,39.40
2018-06-03T12:39:19.534Z,39.60
2018-06-03T12:41:47.747Z,39.80
2018-06-03T12:44:16.121Z,39.50
2018-06-03T12:46:44.296Z,39.20
2018-06-03T12:49:12.510Z,39.10
2018-06-03T12:51:40.747Z,39.30
2018-06-03T12:54:08.935Z,39.70
2018-06-03T12:56:37.136Z,40.00
2018-06-03T12:59:05.314Z,40.40
2018-06-03T13:01:33.601Z,40.70
2018-06-03T13:04:01.814Z,40.80
2018-06-03T13:06:30.118Z,41.00
2018-06-03T13:08:58.215Z,41.10
2018-06-03T13:11:26.639Z,41.30
2018-06-03T13:13:54.827Z,41.40
2018-06-03T13:16:23.050Z,41.30
2018-06-03T13:18:51.261Z,40.80
2018-06-03T13:21:19.484Z,40.20
2018-06-03T13:23:47.680Z,39.90
2018-06-03T13:26:15.931Z,39.50
2018-06-03T13:28:44.171Z,39.50
2018-06-03T13:31:12.359Z,39.70
2018-06-03T13:33:40.533Z,39.70
2018-06-03T13:36:08.742Z,39.00
2018-06-03T13:38:37.097Z,38.90
2018-06-03T13:41:05.258Z,38.80
2018-06-03T13:43:33.502Z,38.60
2018-06-03T13:46:01.696Z,38.60
2018-06-03T13:48:29.881Z,38.60
2018-06-03T13:53:26.232Z,38.80
2018-06-03T13:55:54.441Z,39.00
2018-06-03T13:58:22.610Z,39.30
2018-06-03T14:00:51.214Z,39.40
2018-06-03T14:03:19.400Z,39.30
2018-06-03T14:05:47.579Z,39.10
2018-06-03T14:08:15.767Z,38.90
2018-06-03T14:10:43.967Z,38.80
2018-06-03T14:13:12.151Z,38.70
2018-06-03T14:15:40.351Z,38.70
2018-06-03T14:18:08.576Z,38.50
2018-06-03T14:20:36.768Z,38.10
2018-06-03T14:23:05.037Z,37.50
2018-06-03T14:25:33.208Z,37.00
2018-06-03T14:28:01.464Z,36.30
2018-06-03T14:30:29.670Z,35.40
2018-06-03T14:32:57.868Z,34.90
2018-06-03T14:35:26.120Z,34.80
2018-06-03T14:37:54.260Z,34.50
2018-06-03T14:40:22.695Z,34.00
2018-06-03T14:42:50.882Z,33.50
2018-06-03T14:45:19.349Z,33.10
2018-06-03T14:47:47.537Z,32.90
2018-06-03T14:50:15.739Z,32.60
2018-06-03T14:52:43.940Z,32.40
2018-06-03T14:55:12.136Z,32.20
2018-06-03T14:57:40.329Z,32.20
2018-06-03T15:00:08.488Z,32.20
2018-06-03T15:02:36.671Z,32.20
2018-06-03T15:05:04.869Z,32.20
2018-06-03T15:07:33.067Z,32.10
2018-06-03T15:10:01.579Z,31.90
2018-06-03T15:12:29.845Z,31.90
2018-06-03T15:14:58.013Z,31.80
2018-06-03T15:17:26.204Z,31.70
2018-06-03T15:19:54.461Z,31.60
2018-06-03T15:22:22.665Z,31.60
2018-06-03T15:24:50.969Z,31.70
2018-06-03T15:27:19.209Z,31.60
2018-06-03T15:29:47.437Z,31.70
2018-06-03T15:32:15.674Z,31.60
2018-06-03T15:34:43.883Z,31.60
2018-06-03T15:37:12.431Z,31.60
2018-06-03T15:39:40.651Z,31.40
2018-06-03T15:42:08.867Z,31.30
2018-06-03T15:47:05.279Z,31.10
2018-06-03T15:49:33.624Z,31.20
2018-06-03T15:54:30.213Z,31.20
2018-06-03T15:56:58.830Z,31.00
2018-06-03T15:59:27.359Z,31.00
2018-06-03T16:01:56.176Z,31.00
2018-06-03T16:04:24.405Z,30.90
2018-06-03T16:06:52.644Z,30.80
2018-06-03T16:09:21.484Z,30.70
2018-06-03T16:11:49.728Z,30.80
2018-06-03T16:14:18.088Z,30.80
2018-06-03T16:19:15.050Z,30.70
2018-06-03T16:21:43.344Z,30.60
2018-06-03T16:24:11.616Z,30.50
2018-06-03T16:29:07.978Z,30.40
2018-06-03T16:31:36.668Z,30.40
2018-06-03T16:34:05.025Z,30.30
2018-06-03T16:36:33.253Z,30.20
2018-06-03T16:39:01.496Z,30.10
2018-06-03T16:41:29.877Z,30.20
2018-06-03T16:43:58.171Z,30.20
2018-06-03T16:46:26.665Z,30.20
2018-06-03T16:48:54.985Z,30.20
2018-06-03T16:51:23.253Z,30.20
2018-06-03T16:53:51.476Z,30.10
2018-06-03T16:56:19.763Z,30.10
2018-06-03T17:01:16.010Z,30.00
2018-06-03T17:03:44.236Z,29.90
2018-06-03T17:06:12.679Z,29.90
2018-06-03T17:08:40.913Z,29.90
2018-06-03T17:11:09.204Z,29.90
2018-06-03T17:13:37.428Z,29.80
2018-06-03T17:16:05.687Z,29.70
2018-06-03T17:18:34.236Z,29.70
2018-06-03T17:21:02.462Z,29.60
2018-06-03T17:23:30.680Z,29.50
2018-06-03T17:25:58.948Z,29.50
2018-06-03T17:28:27.205Z,29.40
2018-06-03T17:30:55.500Z,29.30
2018-06-03T17:33:23.804Z,29.30
2018-06-03T17:35:52.073Z,29.20
2018-06-03T17:38:20.293Z,29.10
2018-06-03T17:40:48.527Z,29.10
2018-06-03T17:43:16.767Z,29.10
2018-06-03T17:45:44.991Z,29.00
2018-06-03T17:48:13.221Z,28.90
2018-06-03T17:50:41.451Z,28.90
2018-06-03T17:53:09.912Z,28.90
2018-06-03T17:55:38.112Z,28.80
2018-06-03T17:58:06.338Z,28.80
2018-06-03T18:00:34.560Z,28.70
2018-06-03T18:03:02.972Z,28.60
2018-06-03T18:05:31.176Z,28.60
2018-06-03T18:07:59.418Z,28.50
2018-06-03T18:10:27.665Z,28.50
2018-06-03T18:12:55.904Z,28.40
2018-06-03T18:15:24.073Z,28.40
2018-06-03T18:17:52.452Z,28.40
2018-06-03T18:20:20.684Z,28.30
2018-06-03T18:22:49.007Z,28.30
2018-06-03T18:25:17.204Z,28.20
2018-06-03T18:27:45.421Z,28.20
2018-06-03T18:30:13.699Z,28.10
2018-06-03T18:32:41.981Z,28.00
2018-06-03T18:35:10.230Z,28.00
2018-06-03T18:37:38.452Z,27.90
2018-06-03T18:40:06.979Z,27.80
2018-06-03T18:42:35.286Z,27.80
2018-06-03T18:45:03.601Z,27.70
2018-06-03T18:47:31.838Z,27.60
2018-06-03T18:50:00.124Z,27.60
2018-06-03T18:52:28.795Z,27.50
2018-06-03T18:54:57.086Z,27.40
2018-06-03T18:57:25.312Z,27.20
2018-06-03T18:59:53.569Z,27.10
2018-06-03T19:02:21.965Z,26.90
2018-06-03T19:04:50.160Z,26.80
2018-06-03T19:07:18.404Z,26.60
2018-06-03T19:09:46.625Z,26.50
2018-06-03T19:12:14.898Z,26.40
2018-06-03T19:14:43.139Z,26.30
2018-06-03T19:17:11.400Z,26.20
2018-06-03T19:19:39.643Z,26.10
2018-06-03T19:22:07.863Z,25.90
2018-06-03T19:24:36.162Z,25.80
2018-06-03T19:27:04.720Z,25.60
2018-06-03T19:29:32.939Z,25.50
2018-06-03T19:32:01.192Z,25.40
2018-06-03T19:34:29.388Z,25.30
2018-06-03T19:36:57.635Z,25.20
2018-06-03T19:41:53.956Z,25.10
2018-06-03T19:44:22.225Z,25.00
2018-06-03T19:46:50.456Z,24.90
2018-06-03T19:49:18.639Z,24.90
2018-06-03T19:51:46.928Z,24.80
2018-06-03T19:54:15.202Z,24.80
2018-06-03T19:56:43.363Z,24.70
2018-06-03T19:59:12.571Z,24.60
2018-06-03T20:01:40.858Z,24.60
2018-06-03T20:04:09.105Z,24.60
2018-06-03T20:06:37.356Z,24.60
2018-06-03T20:09:07.524Z,24.50
2018-06-03T20:11:35.878Z,24.50
2018-06-03T20:14:04.165Z,24.50
2018-06-03T20:16:33.258Z,24.40
2018-06-03T20:19:01.460Z,24.40
2018-06-03T20:21:29.889Z,24.30
2018-06-03T20:23:58.111Z,24.30
2018-06-03T20:26:26.373Z,24.30
2018-06-03T20:28:54.665Z,24.20
2018-06-03T20:31:22.887Z,24.20
2018-06-03T20:33:51.136Z,24.20
2018-06-03T20:36:19.345Z,24.10
2018-06-03T20:38:47.630Z,24.10
2018-06-03T20:41:16.387Z,24.00
2018-06-03T20:43:44.595Z,24.00
2018-06-03T20:46:12.824Z,24.00
2018-06-03T20:48:41.156Z,24.00
2018-06-03T20:51:09.368Z,23.90
2018-06-03T20:53:37.593Z,24.00
2018-06-03T20:56:06.168Z,24.00
2018-06-03T20:58:34.732Z,24.00
2018-06-03T21:01:03.029Z,24.00
2018-06-03T21:03:31.572Z,24.00
2018-06-03T21:05:59.816Z,24.00
2018-06-03T21:08:28.051Z,24.00
2018-06-03T21:10:56.279Z,24.00
2018-06-03T21:13:24.557Z,24.00
2018-06-03T21:15:52.813Z,24.00
2018-06-03T21:18:20.984Z,24.00
2018-06-03T21:20:49.362Z,24.00
2018-06-03T21:23:17.592Z,23.90
2018-06-03T21:25:45.811Z,23.90
2018-06-03T21:28:14.052Z,23.80
2018-06-03T21:30:42.267Z,23.70
2018-06-03T21:33:10.558Z,23.70
2018-06-03T21:35:38.754Z,23.70
2018-06-03T21:38:07.007Z,23.60
2018-06-03T21:40:35.207Z,23.60
2018-06-03T21:43:03.425Z,23.60
2018-06-03T21:45:32.566Z,23.50
2018-06-03T21:48:00.787Z,23.50
2018-06-03T21:50:29.020Z,23.50
2018-06-03T21:52:57.364Z,23.40
2018-06-03T21:55:25.596Z,23.30
2018-06-03T21:57:53.805Z,23.30
2018-06-03T22:00:22.051Z,23.20
2018-06-03T22:02:50.420Z,23.20
2018-06-03T22:05:18.681Z,23.10
2018-06-03T22:07:46.972Z,23.10
2018-06-03T22:10:15.296Z,23.00
2018-06-03T22:12:43.581Z,23.00
2018-06-03T22:15:11.874Z,22.90
2018-06-03T22:17:40.324Z,22.90
2018-06-03T22:20:08.515Z,22.80
2018-06-03T22:22:36.744Z,22.70
2018-06-03T22:25:04.918Z,22.70
2018-06-03T22:27:33.136Z,22.60
2018-06-03T22:30:01.451Z,22.60
2018-06-03T22:32:29.674Z,22.50
2018-06-03T22:34:57.948Z,22.50
2018-06-03T22:39:54.292Z,22.40
2018-06-03T22:42:22.500Z,22.40
2018-06-03T22:44:50.719Z,22.30
2018-06-03T22:47:19.193Z,22.20
2018-06-03T22:49:47.396Z,22.20
2018-06-03T22:52:15.705Z,22.20
2018-06-03T22:54:43.846Z,22.10
2018-06-03T22:57:47.307Z,22.00
2018-06-03T23:00:21.874Z,22.10
2018-06-03T23:02:55.599Z,22.00
2018-06-03T23:05:24.024Z,22.00
2018-06-03T23:10:20.621Z,21.90
2018-06-03T23:12:48.895Z,21.90
2018-06-03T23:15:17.118Z,21.80
2018-06-03T23:17:45.436Z,21.80
2018-06-03T23:22:41.997Z,21.70
2018-06-03T23:25:10.231Z,21.70
2018-06-03T23:27:38.510Z,21.70
2018-06-03T23:30:06.813Z,21.80
2018-06-03T23:32:35.059Z,21.80
2018-06-03T23:35:03.429Z,21.80
2018-06-03T23:37:31.712Z,21.80
2018-06-03T23:39:59.973Z,21.70
2018-06-03T23:44:56.281Z,21.70
2018-06-03T23:47:24.575Z,21.60
2018-06-03T23:49:52.772Z,21.60
2018-06-03T23:52:20.991Z,21.60
2018-06-03T23:54:49.443Z,21.60
2018-06-03T23:57:17.720Z,21.50
2018-06-03T23:59:45.946Z,21.50
